createdAt,value
2023-02-22T12:41:52.380Z,866.25
2023-02-22T12:42:52.304Z,832.50
2023-02-22T12:43:52.298Z,810.00
2023-02-22T12:44:52.277Z,804.38
2023-02-22T12:45:52.274Z,815.63
2023-02-22T12:46:52.256Z,798.75
2023-02-22T12:47:52.244Z,821.25
2023-02-22T12:48:52.226Z,826.88
2023-02-22T12:49:52.201Z,838.13
2023-02-22T12:50:52.169Z,776.25
2023-02-22T12:51:52.149Z,810.00
2023-02-22T12:52:52.178Z,821.25
2023-02-22T12:53:52.131Z,804.38
2023-02-22T12:54:52.096Z,776.25
2023-02-22T12:55:52.097Z,759.38
2023-02-22T12:56:52.075Z,725.63
2023-02-22T12:57:52.110Z,725.63
2023-02-22T12:58:52.063Z,714.38
2023-02-22T12:59:52.025Z,675.00
2023-02-22T14:02:09.194Z,568.13
2023-02-22T14:03:09.179Z,573.75
2023-02-22T14:04:09.129Z,579.38
2023-02-22T14:05:09.151Z,585.00
2023-02-22T14:06:09.099Z,585.00
2023-02-22T14:07:09.117Z,585.00
2023-02-22T14:08:09.065Z,596.25
2023-02-22T14:09:09.058Z,607.50
2023-02-22T14:10:09.055Z,618.75
2023-02-22T14:11:09.045Z,641.25
2023-02-22T14:12:09.072Z,731.25
2023-02-22T14:13:09.011Z,905.63
2023-02-22T14:14:16.840Z,1080.00
2023-02-22T14:15:18.565Z,1158.75
2023-02-22T14:16:09.050Z,1243.13
2023-02-22T14:17:08.941Z,1243.13
2023-02-22T14:18:08.921Z,1198.13
2023-02-22T14:19:08.902Z,1293.75
2023-02-22T14:20:08.896Z,1265.63
2023-02-22T14:21:08.872Z,1237.50
2023-02-22T14:22:08.845Z,1113.75
2023-02-22T14:23:08.885Z,1102.50
2023-02-22T14:24:08.833Z,1091.25
2023-02-22T14:25:11.206Z,1130.63
2023-02-22T14:26:08.804Z,1237.50
2023-02-22T14:27:08.801Z,1215.00
2023-02-22T14:28:08.760Z,1141.88
2023-02-22T14:29:08.791Z,1158.75
2023-02-22T14:30:08.799Z,950.63
2023-02-22T14:31:08.866Z,725.63
2023-02-22T14:32:08.825Z,641.25
2023-02-22T14:33:08.942Z,624.38
